sensor_id;sensor_type;location;lat;lon;timestamp;P1;durP1;ratioP1;P2;durP2;ratioP2
71715;SDS011;59568;52.128;5.434;2023-05-07T00:00:18;5.43;;;4.20;;
71715;SDS011;59568;52.128;5.434;2023-05-07T00:02:47;4.47;;;3.80;;
71715;SDS011;59568;52.128;5.434;2023-05-07T00:05:14;5.25;;;3.78;;
71715;SDS011;59568;52.128;5.434;2023-05-07T00:07:41;6.22;;;4.28;;
71715;SDS011;59568;52.128;5.434;2023-05-07T00:10:08;5.82;;;4.57;;
71715;SDS011;59568;52.128;5.434;2023-05-07T00:12:35;4.50;;;3.00;;
71715;SDS011;59568;52.128;5.434;2023-05-07T00:15:02;4.43;;;3.13;;
71715;SDS011;59568;52.128;5.434;2023-05-07T00:17:29;4.60;;;3.88;;
71715;SDS011;59568;52.128;5.434;2023-05-07T00:19:56;5.82;;;3.55;;
71715;SDS011;59568;52.128;5.434;2023-05-07T00:22:23;5.68;;;4.13;;
71715;SDS011;59568;52.128;5.434;2023-05-07T00:24:49;3.93;;;3.30;;
71715;SDS011;59568;52.128;5.434;2023-05-07T00:27:16;3.88;;;3.08;;
71715;SDS011;59568;52.128;5.434;2023-05-07T00:29:42;5.57;;;4.65;;
71715;SDS011;59568;52.128;5.434;2023-05-07T00:32:09;6.10;;;4.03;;
71715;SDS011;59568;52.128;5.434;2023-05-07T00:34:35;5.72;;;3.38;;
71715;SDS011;59568;52.128;5.434;2023-05-07T00:37:02;6.27;;;4.30;;
71715;SDS011;59568;52.128;5.434;2023-05-07T00:39:31;5.82;;;4.45;;
71715;SDS011;59568;52.128;5.434;2023-05-07T00:41:58;4.25;;;3.60;;
71715;SDS011;59568;52.128;5.434;2023-05-07T00:44:25;8.15;;;5.20;;
71715;SDS011;59568;52.128;5.434;2023-05-07T00:46:52;5.72;;;3.70;;
71715;SDS011;59568;52.128;5.434;2023-05-07T00:49:20;6.30;;;3.97;;
71715;SDS011;59568;52.128;5.434;2023-05-07T00:51:47;6.25;;;4.47;;
71715;SDS011;59568;52.128;5.434;2023-05-07T00:54:13;6.13;;;4.75;;
71715;SDS011;59568;52.128;5.434;2023-05-07T00:56:40;6.03;;;4.10;;
71715;SDS011;59568;52.128;5.434;2023-05-07T00:59:07;4.82;;;3.53;;
71715;SDS011;59568;52.128;5.434;2023-05-07T01:01:34;7.83;;;4.67;;
71715;SDS011;59568;52.128;5.434;2023-05-07T01:04:01;3.83;;;3.38;;
71715;SDS011;59568;52.128;5.434;2023-05-07T01:06:28;3.90;;;3.42;;
71715;SDS011;59568;52.128;5.434;2023-05-07T01:08:57;3.83;;;3.30;;
71715;SDS011;59568;52.128;5.434;2023-05-07T01:11:24;8.05;;;5.07;;
71715;SDS011;59568;52.128;5.434;2023-05-07T01:13:51;5.07;;;3.73;;
71715;SDS011;59568;52.128;5.434;2023-05-07T01:16:18;4.18;;;3.22;;
71715;SDS011;59568;52.128;5.434;2023-05-07T01:18:45;4.60;;;3.58;;
71715;SDS011;59568;52.128;5.434;2023-05-07T01:21:14;3.95;;;3.55;;
71715;SDS011;59568;52.128;5.434;2023-05-07T01:23:44;5.57;;;3.78;;
71715;SDS011;59568;52.128;5.434;2023-05-07T01:26:11;7.37;;;3.43;;
71715;SDS011;59568;52.128;5.434;2023-05-07T01:28:37;5.38;;;3.33;;
71715;SDS011;59568;52.128;5.434;2023-05-07T01:31:04;5.13;;;3.85;;
71715;SDS011;59568;52.128;5.434;2023-05-07T01:33:33;4.65;;;3.67;;
71715;SDS011;59568;52.128;5.434;2023-05-07T01:36:02;5.40;;;3.90;;
71715;SDS011;59568;52.128;5.434;2023-05-07T01:38:32;4.10;;;3.07;;
71715;SDS011;59568;52.128;5.434;2023-05-07T01:40:59;5.45;;;3.90;;
71715;SDS011;59568;52.128;5.434;2023-05-07T01:43:26;5.55;;;4.97;;
71715;SDS011;59568;52.128;5.434;2023-05-07T01:45:52;6.53;;;4.75;;
71715;SDS011;59568;52.128;5.434;2023-05-07T01:48:20;5.38;;;4.15;;
71715;SDS011;59568;52.128;5.434;2023-05-07T01:50:47;6.60;;;3.70;;
71715;SDS011;59568;52.128;5.434;2023-05-07T01:53:14;5.75;;;2.90;;
71715;SDS011;59568;52.128;5.434;2023-05-07T01:55:41;4.90;;;4.28;;
71715;SDS011;59568;52.128;5.434;2023-05-07T01:58:07;6.55;;;3.67;;
71715;SDS011;59568;52.128;5.434;2023-05-07T02:00:34;4.43;;;3.78;;
71715;SDS011;59568;52.128;5.434;2023-05-07T02:03:01;4.77;;;4.30;;
71715;SDS011;59568;52.128;5.434;2023-05-07T02:05:27;5.18;;;3.53;;
71715;SDS011;59568;52.128;5.434;2023-05-07T02:07:54;4.38;;;3.97;;
71715;SDS011;59568;52.128;5.434;2023-05-07T02:10:20;5.70;;;5.10;;
71715;SDS011;59568;52.128;5.434;2023-05-07T02:12:47;5.93;;;4.68;;
71715;SDS011;59568;52.128;5.434;2023-05-07T02:15:13;6.03;;;4.23;;
71715;SDS011;59568;52.128;5.434;2023-05-07T02:17:57;4.68;;;3.80;;
71715;SDS011;59568;52.128;5.434;2023-05-07T02:20:32;7.38;;;6.00;;
71715;SDS011;59568;52.128;5.434;2023-05-07T02:22:59;4.75;;;3.92;;
71715;SDS011;59568;52.128;5.434;2023-05-07T02:25:26;5.43;;;3.90;;
71715;SDS011;59568;52.128;5.434;2023-05-07T02:27:52;5.57;;;4.23;;
71715;SDS011;59568;52.128;5.434;2023-05-07T02:30:20;5.57;;;4.78;;
71715;SDS011;59568;52.128;5.434;2023-05-07T02:32:47;5.88;;;4.18;;
71715;SDS011;59568;52.128;5.434;2023-05-07T02:35:14;4.28;;;3.88;;
71715;SDS011;59568;52.128;5.434;2023-05-07T02:37:40;6.90;;;4.90;;
71715;SDS011;59568;52.128;5.434;2023-05-07T02:40:07;6.30;;;4.57;;
71715;SDS011;59568;52.128;5.434;2023-05-07T02:42:34;5.40;;;3.70;;
71715;SDS011;59568;52.128;5.434;2023-05-07T02:45:01;6.45;;;4.75;;
71715;SDS011;59568;52.128;5.434;2023-05-07T02:47:27;7.95;;;5.90;;
71715;SDS011;59568;52.128;5.434;2023-05-07T02:49:54;6.75;;;5.85;;
71715;SDS011;59568;52.128;5.434;2023-05-07T02:52:21;5.47;;;4.10;;
71715;SDS011;59568;52.128;5.434;2023-05-07T02:54:48;8.60;;;5.45;;
71715;SDS011;59568;52.128;5.434;2023-05-07T02:57:14;9.07;;;6.50;;
71715;SDS011;59568;52.128;5.434;2023-05-07T02:59:41;8.43;;;6.15;;
71715;SDS011;59568;52.128;5.434;2023-05-07T03:02:08;6.75;;;5.97;;
71715;SDS011;59568;52.128;5.434;2023-05-07T03:04:36;7.27;;;5.53;;
71715;SDS011;59568;52.128;5.434;2023-05-07T03:07:02;7.05;;;4.88;;
71715;SDS011;59568;52.128;5.434;2023-05-07T03:09:29;6.85;;;4.72;;
71715;SDS011;59568;52.128;5.434;2023-05-07T03:11:56;8.48;;;6.50;;
71715;SDS011;59568;52.128;5.434;2023-05-07T03:14:23;9.38;;;6.88;;
71715;SDS011;59568;52.128;5.434;2023-05-07T03:16:50;8.97;;;6.00;;
71715;SDS011;59568;52.128;5.434;2023-05-07T03:19:16;8.65;;;6.20;;
71715;SDS011;59568;52.128;5.434;2023-05-07T03:21:43;11.15;;;6.47;;
71715;SDS011;59568;52.128;5.434;2023-05-07T03:24:09;9.30;;;6.40;;
71715;SDS011;59568;52.128;5.434;2023-05-07T03:26:36;8.10;;;6.50;;
71715;SDS011;59568;52.128;5.434;2023-05-07T03:29:02;7.90;;;4.70;;
71715;SDS011;59568;52.128;5.434;2023-05-07T03:31:29;8.55;;;5.13;;
71715;SDS011;59568;52.128;5.434;2023-05-07T03:33:56;8.75;;;6.38;;
71715;SDS011;59568;52.128;5.434;2023-05-07T03:36:23;6.40;;;5.00;;
71715;SDS011;59568;52.128;5.434;2023-05-07T03:38:52;7.45;;;6.13;;
71715;SDS011;59568;52.128;5.434;2023-05-07T03:41:19;4.97;;;3.83;;
71715;SDS011;59568;52.128;5.434;2023-05-07T03:43:46;6.47;;;4.57;;
71715;SDS011;59568;52.128;5.434;2023-05-07T03:46:13;13.27;;;7.70;;
71715;SDS011;59568;52.128;5.434;2023-05-07T03:48:39;7.10;;;5.70;;
71715;SDS011;59568;52.128;5.434;2023-05-07T03:51:06;9.05;;;5.18;;
71715;SDS011;59568;52.128;5.434;2023-05-07T03:53:32;6.13;;;4.47;;
71715;SDS011;59568;52.128;5.434;2023-05-07T03:55:59;5.88;;;3.75;;
71715;SDS011;59568;52.128;5.434;2023-05-07T03:58:25;6.40;;;4.78;;
71715;SDS011;59568;52.128;5.434;2023-05-07T04:00:52;7.53;;;5.75;;
71715;SDS011;59568;52.128;5.434;2023-05-07T04:03:18;7.80;;;6.50;;
71715;SDS011;59568;52.128;5.434;2023-05-07T04:05:45;6.87;;;5.03;;
71715;SDS011;59568;52.128;5.434;2023-05-07T04:08:11;8.30;;;5.90;;
71715;SDS011;59568;52.128;5.434;2023-05-07T04:10:38;9.25;;;5.88;;
71715;SDS011;59568;52.128;5.434;2023-05-07T04:13:04;6.72;;;4.57;;
71715;SDS011;59568;52.128;5.434;2023-05-07T04:15:31;8.13;;;6.70;;
71715;SDS011;59568;52.128;5.434;2023-05-07T04:17:57;9.60;;;6.63;;
71715;SDS011;59568;52.128;5.434;2023-05-07T04:20:24;8.68;;;6.15;;
71715;SDS011;59568;52.128;5.434;2023-05-07T04:22:50;9.35;;;6.97;;
71715;SDS011;59568;52.128;5.434;2023-05-07T04:25:16;8.80;;;7.13;;
71715;SDS011;59568;52.128;5.434;2023-05-07T04:27:43;9.15;;;7.57;;
71715;SDS011;59568;52.128;5.434;2023-05-07T04:30:10;11.80;;;7.40;;
71715;SDS011;59568;52.128;5.434;2023-05-07T04:32:38;11.25;;;7.63;;
71715;SDS011;59568;52.128;5.434;2023-05-07T04:35:05;12.43;;;8.82;;
71715;SDS011;59568;52.128;5.434;2023-05-07T04:37:32;10.60;;;7.82;;
71715;SDS011;59568;52.128;5.434;2023-05-07T04:39:58;8.48;;;7.13;;
71715;SDS011;59568;52.128;5.434;2023-05-07T04:42:26;11.03;;;7.80;;
71715;SDS011;59568;52.128;5.434;2023-05-07T04:44:53;10.70;;;7.88;;
71715;SDS011;59568;52.128;5.434;2023-05-07T04:47:20;11.95;;;7.95;;
71715;SDS011;59568;52.128;5.434;2023-05-07T04:49:46;15.43;;;8.63;;
71715;SDS011;59568;52.128;5.434;2023-05-07T04:52:13;11.50;;;8.10;;
71715;SDS011;59568;52.128;5.434;2023-05-07T04:54:39;10.33;;;7.90;;
71715;SDS011;59568;52.128;5.434;2023-05-07T04:57:06;11.20;;;8.20;;
71715;SDS011;59568;52.128;5.434;2023-05-07T04:59:32;14.45;;;7.70;;
71715;SDS011;59568;52.128;5.434;2023-05-07T05:01:59;12.55;;;8.52;;
71715;SDS011;59568;52.128;5.434;2023-05-07T05:04:26;9.98;;;8.18;;
71715;SDS011;59568;52.128;5.434;2023-05-07T05:06:53;11.50;;;7.63;;
71715;SDS011;59568;52.128;5.434;2023-05-07T05:09:19;9.38;;;7.13;;
71715;SDS011;59568;52.128;5.434;2023-05-07T05:11:46;9.88;;;7.50;;
71715;SDS011;59568;52.128;5.434;2023-05-07T05:14:13;10.65;;;8.02;;
71715;SDS011;59568;52.128;5.434;2023-05-07T05:16:39;9.40;;;8.02;;
71715;SDS011;59568;52.128;5.434;2023-05-07T05:19:06;14.50;;;8.50;;
71715;SDS011;59568;52.128;5.434;2023-05-07T05:21:33;10.38;;;7.75;;
71715;SDS011;59568;52.128;5.434;2023-05-07T05:23:59;11.80;;;8.60;;
71715;SDS011;59568;52.128;5.434;2023-05-07T05:26:26;13.75;;;8.90;;
71715;SDS011;59568;52.128;5.434;2023-05-07T05:28:52;11.38;;;8.68;;
71715;SDS011;59568;52.128;5.434;2023-05-07T05:31:19;13.57;;;8.70;;
71715;SDS011;59568;52.128;5.434;2023-05-07T05:33:45;12.85;;;9.23;;
71715;SDS011;59568;52.128;5.434;2023-05-07T05:36:12;16.58;;;9.52;;
71715;SDS011;59568;52.128;5.434;2023-05-07T05:38:39;12.60;;;8.35;;
71715;SDS011;59568;52.128;5.434;2023-05-07T05:41:06;11.55;;;8.80;;
71715;SDS011;59568;52.128;5.434;2023-05-07T05:43:33;12.13;;;8.87;;
71715;SDS011;59568;52.128;5.434;2023-05-07T05:45:59;12.30;;;9.50;;
71715;SDS011;59568;52.128;5.434;2023-05-07T05:48:28;11.90;;;9.85;;
71715;SDS011;59568;52.128;5.434;2023-05-07T05:50:55;15.07;;;9.13;;
71715;SDS011;59568;52.128;5.434;2023-05-07T05:53:21;13.25;;;9.20;;
71715;SDS011;59568;52.128;5.434;2023-05-07T05:55:48;14.67;;;8.47;;
71715;SDS011;59568;52.128;5.434;2023-05-07T05:58:14;11.98;;;8.20;;
71715;SDS011;59568;52.128;5.434;2023-05-07T06:00:41;12.32;;;9.00;;
71715;SDS011;59568;52.128;5.434;2023-05-07T06:03:08;12.52;;;9.07;;
71715;SDS011;59568;52.128;5.434;2023-05-07T06:05:34;13.15;;;9.57;;
71715;SDS011;59568;52.128;5.434;2023-05-07T06:08:01;13.17;;;9.47;;
71715;SDS011;59568;52.128;5.434;2023-05-07T06:10:27;13.75;;;9.80;;
71715;SDS011;59568;52.128;5.434;2023-05-07T06:12:54;11.13;;;8.13;;
71715;SDS011;59568;52.128;5.434;2023-05-07T06:15:21;13.50;;;9.20;;
71715;SDS011;59568;52.128;5.434;2023-05-07T06:17:47;12.13;;;9.70;;
71715;SDS011;59568;52.128;5.434;2023-05-07T06:20:15;13.97;;;8.80;;
71715;SDS011;59568;52.128;5.434;2023-05-07T06:22:42;12.57;;;8.95;;
71715;SDS011;59568;52.128;5.434;2023-05-07T06:25:08;13.77;;;10.52;;
71715;SDS011;59568;52.128;5.434;2023-05-07T06:27:35;13.95;;;9.50;;
71715;SDS011;59568;52.128;5.434;2023-05-07T06:30:02;13.63;;;9.77;;
71715;SDS011;59568;52.128;5.434;2023-05-07T06:32:29;11.63;;;8.97;;
71715;SDS011;59568;52.128;5.434;2023-05-07T06:34:55;13.50;;;9.95;;
71715;SDS011;59568;52.128;5.434;2023-05-07T06:37:22;15.40;;;10.02;;
71715;SDS011;59568;52.128;5.434;2023-05-07T06:39:48;12.65;;;9.07;;
71715;SDS011;59568;52.128;5.434;2023-05-07T06:42:15;11.90;;;9.25;;
71715;SDS011;59568;52.128;5.434;2023-05-07T06:44:42;16.70;;;10.07;;
71715;SDS011;59568;52.128;5.434;2023-05-07T06:47:08;14.70;;;10.25;;
71715;SDS011;59568;52.128;5.434;2023-05-07T06:49:35;12.60;;;9.50;;
71715;SDS011;59568;52.128;5.434;2023-05-07T06:52:01;13.18;;;9.25;;
71715;SDS011;59568;52.128;5.434;2023-05-07T06:54:28;12.05;;;9.05;;
71715;SDS011;59568;52.128;5.434;2023-05-07T06:56:55;13.87;;;9.83;;
71715;SDS011;59568;52.128;5.434;2023-05-07T06:59:21;12.73;;;9.88;;
71715;SDS011;59568;52.128;5.434;2023-05-07T07:01:48;15.05;;;9.85;;
71715;SDS011;59568;52.128;5.434;2023-05-07T07:04:14;15.52;;;10.38;;
71715;SDS011;59568;52.128;5.434;2023-05-07T07:06:41;14.48;;;11.23;;
71715;SDS011;59568;52.128;5.434;2023-05-07T07:09:08;13.93;;;10.67;;
71715;SDS011;59568;52.128;5.434;2023-05-07T07:11:34;14.32;;;9.88;;
71715;SDS011;59568;52.128;5.434;2023-05-07T07:14:01;15.15;;;10.50;;
71715;SDS011;59568;52.128;5.434;2023-05-07T07:16:27;13.85;;;10.63;;
71715;SDS011;59568;52.128;5.434;2023-05-07T07:18:54;13.13;;;10.90;;
71715;SDS011;59568;52.128;5.434;2023-05-07T07:21:20;15.23;;;10.43;;
71715;SDS011;59568;52.128;5.434;2023-05-07T07:23:47;14.35;;;8.88;;
71715;SDS011;59568;52.128;5.434;2023-05-07T07:26:14;13.52;;;9.80;;
71715;SDS011;59568;52.128;5.434;2023-05-07T07:28:44;13.48;;;9.98;;
71715;SDS011;59568;52.128;5.434;2023-05-07T07:31:11;12.65;;;9.88;;
71715;SDS011;59568;52.128;5.434;2023-05-07T07:33:39;12.97;;;9.70;;
71715;SDS011;59568;52.128;5.434;2023-05-07T07:36:05;11.85;;;9.45;;
71715;SDS011;59568;52.128;5.434;2023-05-07T07:38:33;12.48;;;10.02;;
71715;SDS011;59568;52.128;5.434;2023-05-07T07:41:00;11.70;;;9.38;;
71715;SDS011;59568;52.128;5.434;2023-05-07T07:43:27;12.40;;;10.15;;
71715;SDS011;59568;52.128;5.434;2023-05-07T07:45:54;10.60;;;9.03;;
71715;SDS011;59568;52.128;5.434;2023-05-07T07:48:21;12.13;;;8.57;;
71715;SDS011;59568;52.128;5.434;2023-05-07T07:50:51;13.60;;;9.23;;
71715;SDS011;59568;52.128;5.434;2023-05-07T07:53:17;12.80;;;9.68;;
71715;SDS011;59568;52.128;5.434;2023-05-07T07:55:44;11.15;;;9.32;;
71715;SDS011;59568;52.128;5.434;2023-05-07T07:58:11;13.50;;;10.07;;
71715;SDS011;59568;52.128;5.434;2023-05-07T08:00:38;14.20;;;10.23;;
71715;SDS011;59568;52.128;5.434;2023-05-07T08:03:04;12.50;;;9.57;;
71715;SDS011;59568;52.128;5.434;2023-05-07T08:05:33;12.38;;;8.73;;
71715;SDS011;59568;52.128;5.434;2023-05-07T08:07:59;11.55;;;9.43;;
71715;SDS011;59568;52.128;5.434;2023-05-07T08:10:26;12.13;;;8.97;;
71715;SDS011;59568;52.128;5.434;2023-05-07T08:12:52;11.75;;;9.20;;
71715;SDS011;59568;52.128;5.434;2023-05-07T08:15:19;12.30;;;9.55;;
71715;SDS011;59568;52.128;5.434;2023-05-07T08:17:46;13.98;;;10.30;;
71715;SDS011;59568;52.128;5.434;2023-05-07T08:20:13;19.05;;;9.82;;
71715;SDS011;59568;52.128;5.434;2023-05-07T08:22:39;12.17;;;9.33;;
71715;SDS011;59568;52.128;5.434;2023-05-07T08:25:06;17.83;;;10.65;;
71715;SDS011;59568;52.128;5.434;2023-05-07T08:27:33;13.52;;;10.23;;
71715;SDS011;59568;52.128;5.434;2023-05-07T08:29:59;14.25;;;10.30;;
71715;SDS011;59568;52.128;5.434;2023-05-07T08:32:26;13.65;;;10.45;;
71715;SDS011;59568;52.128;5.434;2023-05-07T08:34:53;14.37;;;9.77;;
71715;SDS011;59568;52.128;5.434;2023-05-07T08:37:20;13.25;;;11.02;;
71715;SDS011;59568;52.128;5.434;2023-05-07T08:39:47;12.55;;;10.38;;
71715;SDS011;59568;52.128;5.434;2023-05-07T08:42:14;15.57;;;11.18;;
71715;SDS011;59568;52.128;5.434;2023-05-07T08:44:44;15.23;;;11.88;;
71715;SDS011;59568;52.128;5.434;2023-05-07T08:47:13;14.47;;;10.73;;
71715;SDS011;59568;52.128;5.434;2023-05-07T08:49:40;12.98;;;10.60;;
71715;SDS011;59568;52.128;5.434;2023-05-07T08:52:06;17.40;;;12.07;;
71715;SDS011;59568;52.128;5.434;2023-05-07T08:54:36;16.40;;;11.20;;
71715;SDS011;59568;52.128;5.434;2023-05-07T08:57:04;13.45;;;10.57;;
71715;SDS011;59568;52.128;5.434;2023-05-07T08:59:30;14.50;;;10.93;;
71715;SDS011;59568;52.128;5.434;2023-05-07T09:01:57;16.10;;;11.82;;
71715;SDS011;59568;52.128;5.434;2023-05-07T09:04:23;13.55;;;11.57;;
71715;SDS011;59568;52.128;5.434;2023-05-07T09:06:50;16.15;;;11.73;;
71715;SDS011;59568;52.128;5.434;2023-05-07T09:09:17;14.57;;;12.15;;
71715;SDS011;59568;52.128;5.434;2023-05-07T09:11:47;15.03;;;11.30;;
71715;SDS011;59568;52.128;5.434;2023-05-07T09:14:13;15.07;;;11.30;;
71715;SDS011;59568;52.128;5.434;2023-05-07T09:16:40;15.45;;;12.25;;
71715;SDS011;59568;52.128;5.434;2023-05-07T09:19:06;14.73;;;11.27;;
71715;SDS011;59568;52.128;5.434;2023-05-07T09:21:33;16.73;;;11.65;;
71715;SDS011;59568;52.128;5.434;2023-05-07T09:23:59;16.27;;;11.33;;
71715;SDS011;59568;52.128;5.434;2023-05-07T09:26:26;15.13;;;11.48;;
71715;SDS011;59568;52.128;5.434;2023-05-07T09:28:54;18.02;;;12.30;;
71715;SDS011;59568;52.128;5.434;2023-05-07T09:31:21;15.25;;;10.95;;
71715;SDS011;59568;52.128;5.434;2023-05-07T09:33:50;15.38;;;10.88;;
71715;SDS011;59568;52.128;5.434;2023-05-07T09:36:16;17.33;;;12.00;;
71715;SDS011;59568;52.128;5.434;2023-05-07T09:38:44;14.50;;;11.52;;
71715;SDS011;59568;52.128;5.434;2023-05-07T09:41:12;14.50;;;11.23;;
71715;SDS011;59568;52.128;5.434;2023-05-07T09:43:39;14.32;;;10.60;;
71715;SDS011;59568;52.128;5.434;2023-05-07T09:48:41;14.77;;;11.23;;
71715;SDS011;59568;52.128;5.434;2023-05-07T09:51:11;13.75;;;11.07;;
71715;SDS011;59568;52.128;5.434;2023-05-07T09:53:44;16.02;;;11.15;;
71715;SDS011;59568;52.128;5.434;2023-05-07T09:56:13;14.13;;;10.77;;
71715;SDS011;59568;52.128;5.434;2023-05-07T09:58:43;14.00;;;11.75;;
71715;SDS011;59568;52.128;5.434;2023-05-07T10:01:12;13.40;;;10.63;;
71715;SDS011;59568;52.128;5.434;2023-05-07T10:03:42;13.18;;;10.70;;
71715;SDS011;59568;52.128;5.434;2023-05-07T10:06:10;16.27;;;11.90;;
71715;SDS011;59568;52.128;5.434;2023-05-07T10:08:39;13.82;;;10.43;;
71715;SDS011;59568;52.128;5.434;2023-05-07T10:11:06;15.30;;;10.88;;
71715;SDS011;59568;52.128;5.434;2023-05-07T10:13:33;12.87;;;9.93;;
71715;SDS011;59568;52.128;5.434;2023-05-07T10:16:05;14.20;;;10.25;;
71715;SDS011;59568;52.128;5.434;2023-05-07T10:18:32;14.98;;;10.82;;
71715;SDS011;59568;52.128;5.434;2023-05-07T10:21:04;14.25;;;10.88;;
71715;SDS011;59568;52.128;5.434;2023-05-07T10:23:34;13.73;;;10.35;;
71715;SDS011;59568;52.128;5.434;2023-05-07T10:26:03;15.67;;;10.60;;
71715;SDS011;59568;52.128;5.434;2023-05-07T10:28:32;15.90;;;11.65;;
71715;SDS011;59568;52.128;5.434;2023-05-07T10:33:44;14.35;;;10.82;;
71715;SDS011;59568;52.128;5.434;2023-05-07T10:36:15;14.75;;;10.45;;
71715;SDS011;59568;52.128;5.434;2023-05-07T10:38:41;13.70;;;10.17;;
71715;SDS011;59568;52.128;5.434;2023-05-07T10:41:08;16.08;;;10.75;;
71715;SDS011;59568;52.128;5.434;2023-05-07T10:43:39;14.75;;;10.27;;
71715;SDS011;59568;52.128;5.434;2023-05-07T10:46:11;14.27;;;10.88;;
71715;SDS011;59568;52.128;5.434;2023-05-07T10:51:27;12.17;;;9.43;;
71715;SDS011;59568;52.128;5.434;2023-05-07T10:56:39;14.25;;;10.38;;
71715;SDS011;59568;52.128;5.434;2023-05-07T11:01:54;13.32;;;9.95;;
71715;SDS011;59568;52.128;5.434;2023-05-07T11:04:25;14.93;;;10.30;;
71715;SDS011;59568;52.128;5.434;2023-05-07T11:15:09;11.65;;;9.43;;
71715;SDS011;59568;52.128;5.434;2023-05-07T11:17:53;13.87;;;10.60;;
71715;SDS011;59568;52.128;5.434;2023-05-07T11:20:21;13.50;;;9.98;;
71715;SDS011;59568;52.128;5.434;2023-05-07T11:26:05;14.05;;;10.18;;
71715;SDS011;59568;52.128;5.434;2023-05-07T11:28:40;12.70;;;9.80;;
71715;SDS011;59568;52.128;5.434;2023-05-07T11:31:07;13.30;;;10.00;;
71715;SDS011;59568;52.128;5.434;2023-05-07T11:33:35;17.42;;;10.60;;
71715;SDS011;59568;52.128;5.434;2023-05-07T11:36:03;14.63;;;9.98;;
71715;SDS011;59568;52.128;5.434;2023-05-07T11:38:30;14.88;;;10.68;;
71715;SDS011;59568;52.128;5.434;2023-05-07T11:41:00;15.45;;;10.88;;
71715;SDS011;59568;52.128;5.434;2023-05-07T11:43:27;15.73;;;11.10;;
71715;SDS011;59568;52.128;5.434;2023-05-07T11:45:54;14.77;;;10.10;;
71715;SDS011;59568;52.128;5.434;2023-05-07T11:48:21;14.80;;;10.80;;
71715;SDS011;59568;52.128;5.434;2023-05-07T11:50:52;16.55;;;10.02;;
71715;SDS011;59568;52.128;5.434;2023-05-07T11:53:20;13.40;;;10.75;;
71715;SDS011;59568;52.128;5.434;2023-05-07T11:55:55;15.50;;;10.93;;
71715;SDS011;59568;52.128;5.434;2023-05-07T11:58:22;13.48;;;10.70;;
71715;SDS011;59568;52.128;5.434;2023-05-07T12:00:50;14.38;;;11.18;;
71715;SDS011;59568;52.128;5.434;2023-05-07T12:03:18;13.30;;;10.82;;
71715;SDS011;59568;52.128;5.434;2023-05-07T12:05:45;14.05;;;11.02;;
71715;SDS011;59568;52.128;5.434;2023-05-07T12:08:13;13.47;;;10.70;;
71715;SDS011;59568;52.128;5.434;2023-05-07T12:10:42;13.05;;;10.27;;
71715;SDS011;59568;52.128;5.434;2023-05-07T12:13:16;13.50;;;10.80;;
71715;SDS011;59568;52.128;5.434;2023-05-07T12:15:52;13.48;;;10.07;;
71715;SDS011;59568;52.128;5.434;2023-05-07T12:18:19;13.02;;;10.30;;
71715;SDS011;59568;52.128;5.434;2023-05-07T12:20:47;13.77;;;8.93;;
71715;SDS011;59568;52.128;5.434;2023-05-07T12:23:14;15.07;;;10.50;;
71715;SDS011;59568;52.128;5.434;2023-05-07T12:25:41;13.35;;;10.73;;
71715;SDS011;59568;52.128;5.434;2023-05-07T12:28:16;12.45;;;10.07;;
71715;SDS011;59568;52.128;5.434;2023-05-07T12:30:44;12.70;;;10.85;;
71715;SDS011;59568;52.128;5.434;2023-05-07T12:33:16;13.57;;;10.73;;
71715;SDS011;59568;52.128;5.434;2023-05-07T12:35:44;12.88;;;9.35;;
71715;SDS011;59568;52.128;5.434;2023-05-07T12:38:15;12.75;;;9.30;;
71715;SDS011;59568;52.128;5.434;2023-05-07T12:40:44;11.85;;;9.27;;
71715;SDS011;59568;52.128;5.434;2023-05-07T12:45:44;11.20;;;8.13;;
71715;SDS011;59568;52.128;5.434;2023-05-07T12:48:11;11.80;;;8.38;;
71715;SDS011;59568;52.128;5.434;2023-05-07T12:50:38;8.88;;;6.90;;
71715;SDS011;59568;52.128;5.434;2023-05-07T12:53:05;11.48;;;7.85;;
71715;SDS011;59568;52.128;5.434;2023-05-07T12:55:43;11.85;;;8.02;;
71715;SDS011;59568;52.128;5.434;2023-05-07T12:58:20;12.17;;;7.97;;
71715;SDS011;59568;52.128;5.434;2023-05-07T13:00:50;10.52;;;7.43;;
71715;SDS011;59568;52.128;5.434;2023-05-07T13:03:24;11.25;;;7.72;;
71715;SDS011;59568;52.128;5.434;2023-05-07T13:06:04;9.40;;;7.60;;
71715;SDS011;59568;52.128;5.434;2023-05-07T13:08:33;7.82;;;6.68;;
71715;SDS011;59568;52.128;5.434;2023-05-07T13:11:04;8.53;;;6.73;;
71715;SDS011;59568;52.128;5.434;2023-05-07T13:13:31;9.80;;;7.60;;
71715;SDS011;59568;52.128;5.434;2023-05-07T13:15:59;9.32;;;6.85;;
71715;SDS011;59568;52.128;5.434;2023-05-07T13:18:26;7.95;;;6.22;;
71715;SDS011;59568;52.128;5.434;2023-05-07T13:20:56;8.10;;;6.65;;
71715;SDS011;59568;52.128;5.434;2023-05-07T13:23:22;10.90;;;7.07;;
71715;SDS011;59568;52.128;5.434;2023-05-07T13:25:49;9.43;;;6.63;;
71715;SDS011;59568;52.128;5.434;2023-05-07T13:28:16;9.88;;;6.80;;
71715;SDS011;59568;52.128;5.434;2023-05-07T13:30:43;10.10;;;6.28;;
71715;SDS011;59568;52.128;5.434;2023-05-07T13:33:10;10.27;;;6.43;;
71715;SDS011;59568;52.128;5.434;2023-05-07T13:35:37;10.80;;;7.23;;
71715;SDS011;59568;52.128;5.434;2023-05-07T13:38:04;11.52;;;8.07;;
71715;SDS011;59568;52.128;5.434;2023-05-07T13:40:31;10.70;;;7.90;;
71715;SDS011;59568;52.128;5.434;2023-05-07T13:42:58;10.45;;;7.93;;
71715;SDS011;59568;52.128;5.434;2023-05-07T13:45:28;12.55;;;8.35;;
71715;SDS011;59568;52.128;5.434;2023-05-07T13:47:56;12.93;;;9.33;;
71715;SDS011;59568;52.128;5.434;2023-05-07T13:50:23;10.93;;;8.13;;
71715;SDS011;59568;52.128;5.434;2023-05-07T13:52:49;15.05;;;9.90;;
71715;SDS011;59568;52.128;5.434;2023-05-07T13:55:17;12.13;;;8.73;;
71715;SDS011;59568;52.128;5.434;2023-05-07T13:57:44;12.57;;;9.40;;
71715;SDS011;59568;52.128;5.434;2023-05-07T14:00:12;11.53;;;8.83;;
71715;SDS011;59568;52.128;5.434;2023-05-07T14:02:40;14.00;;;8.85;;
71715;SDS011;59568;52.128;5.434;2023-05-07T14:05:07;12.02;;;8.73;;
71715;SDS011;59568;52.128;5.434;2023-05-07T14:07:35;11.90;;;9.57;;
71715;SDS011;59568;52.128;5.434;2023-05-07T14:10:02;12.18;;;9.02;;
71715;SDS011;59568;52.128;5.434;2023-05-07T14:12:29;12.43;;;9.13;;
71715;SDS011;59568;52.128;5.434;2023-05-07T14:14:55;13.38;;;9.32;;
71715;SDS011;59568;52.128;5.434;2023-05-07T14:17:22;11.90;;;8.68;;
71715;SDS011;59568;52.128;5.434;2023-05-07T14:19:51;17.40;;;10.23;;
71715;SDS011;59568;52.128;5.434;2023-05-07T14:22:20;12.40;;;9.13;;
71715;SDS011;59568;52.128;5.434;2023-05-07T14:24:49;12.53;;;8.93;;
71715;SDS011;59568;52.128;5.434;2023-05-07T14:27:36;11.60;;;8.80;;
71715;SDS011;59568;52.128;5.434;2023-05-07T14:30:03;11.48;;;8.38;;
71715;SDS011;59568;52.128;5.434;2023-05-07T14:32:29;33.63;;;20.17;;
71715;SDS011;59568;52.128;5.434;2023-05-07T14:34:56;18.92;;;11.43;;
71715;SDS011;59568;52.128;5.434;2023-05-07T14:37:23;14.97;;;10.33;;
71715;SDS011;59568;52.128;5.434;2023-05-07T14:39:50;12.95;;;8.48;;
71715;SDS011;59568;52.128;5.434;2023-05-07T14:42:17;10.35;;;7.97;;
71715;SDS011;59568;52.128;5.434;2023-05-07T14:44:44;11.38;;;8.45;;
71715;SDS011;59568;52.128;5.434;2023-05-07T14:47:11;14.48;;;7.90;;
71715;SDS011;59568;52.128;5.434;2023-05-07T14:49:38;11.97;;;8.47;;
71715;SDS011;59568;52.128;5.434;2023-05-07T14:52:04;12.07;;;7.90;;
71715;SDS011;59568;52.128;5.434;2023-05-07T14:54:36;11.63;;;8.52;;
71715;SDS011;59568;52.128;5.434;2023-05-07T14:57:04;11.93;;;7.97;;
71715;SDS011;59568;52.128;5.434;2023-05-07T14:59:32;14.52;;;9.02;;
71715;SDS011;59568;52.128;5.434;2023-05-07T15:01:59;12.53;;;8.70;;
71715;SDS011;59568;52.128;5.434;2023-05-07T15:04:29;11.75;;;8.60;;